createdAt,value
2024-05-09T00:02:08.225Z,10.75
2024-05-09T00:04:39.830Z,10.71
2024-05-09T00:07:09.714Z,10.68
2024-05-09T00:09:41.909Z,10.65
2024-05-09T00:12:11.504Z,10.65
2024-05-09T00:15:27.470Z,10.60
2024-05-09T00:17:56.632Z,10.56
2024-05-09T00:20:35.118Z,10.53
2024-05-09T00:23:29.208Z,10.52
2024-05-09T00:25:56.549Z,10.47
2024-05-09T00:28:31.071Z,10.41
2024-05-09T00:30:58.438Z,10.37
2024-05-09T00:33:27.097Z,10.36
2024-05-09T00:36:00.434Z,10.34
2024-05-09T00:38:27.344Z,10.30
2024-05-09T00:41:00.234Z,10.28
2024-05-09T00:43:32.490Z,10.21
2024-05-09T00:46:02.086Z,10.15
2024-05-09T00:48:29.131Z,10.10
2024-05-09T00:50:57.652Z,10.07
2024-05-09T00:53:28.925Z,10.07
2024-05-09T00:55:58.222Z,10.03
2024-05-09T00:58:54.304Z,9.99
2024-05-09T01:01:36.483Z,9.94
2024-05-09T01:04:03.509Z,9.94
2024-05-09T01:06:31.390Z,9.91
2024-05-09T01:08:59.174Z,9.87
2024-05-09T01:11:33.967Z,9.86
2024-05-09T01:14:03.825Z,9.85
2024-05-09T01:16:31.084Z,9.84
2024-05-09T01:18:59.019Z,9.81
2024-05-09T01:21:28.781Z,9.78
2024-05-09T01:25:10.617Z,9.73
2024-05-09T01:27:58.270Z,9.68
2024-05-09T01:30:31.944Z,9.63
2024-05-09T01:33:02.384Z,9.59
2024-05-09T01:35:29.245Z,9.52
2024-05-09T01:37:56.202Z,9.47
2024-05-09T01:40:36.135Z,9.47
2024-05-09T01:43:07.124Z,9.42
2024-05-09T01:45:34.215Z,9.34
2024-05-09T01:48:01.766Z,9.23
2024-05-09T01:50:37.666Z,9.13
2024-05-09T01:53:12.773Z,9.10
2024-05-09T01:55:44.629Z,9.11
2024-05-09T01:58:14.404Z,9.10
2024-05-09T02:00:42.882Z,9.10
2024-05-09T02:03:15.579Z,9.10
2024-05-09T02:05:48.011Z,9.08
2024-05-09T02:08:27.061Z,9.05
2024-05-09T02:10:57.414Z,9.02
2024-05-09T02:13:24.166Z,8.99
2024-05-09T02:16:02.288Z,8.95
2024-05-09T02:18:30.332Z,8.91
2024-05-09T02:20:57.438Z,8.93
2024-05-09T02:23:34.316Z,8.89
2024-05-09T02:26:01.404Z,8.84
2024-05-09T02:28:30.099Z,8.72
2024-05-09T02:31:01.360Z,8.73
2024-05-09T02:33:28.844Z,8.70
2024-05-09T02:35:56.157Z,8.68
2024-05-09T02:39:26.209Z,8.69
2024-05-09T02:42:03.443Z,8.64
2024-05-09T02:44:33.322Z,8.63
2024-05-09T02:47:03.606Z,8.62
2024-05-09T02:49:30.576Z,8.57
2024-05-09T02:51:57.429Z,8.57
2024-05-09T02:54:27.218Z,8.56
2024-05-09T02:56:55.574Z,8.51
2024-05-09T02:59:38.225Z,8.44
2024-05-09T03:02:08.243Z,8.45
2024-05-09T03:04:38.111Z,8.44
2024-05-09T03:07:07.569Z,8.42
2024-05-09T03:09:34.282Z,8.41
2024-05-09T03:12:01.441Z,8.41
2024-05-09T03:14:28.700Z,8.36
2024-05-09T03:16:58.065Z,8.27
2024-05-09T03:19:24.971Z,8.25
2024-05-09T03:21:59.550Z,8.23
2024-05-09T03:24:29.395Z,8.18
2024-05-09T03:26:59.690Z,8.16
2024-05-09T03:29:31.069Z,8.13
2024-05-09T03:32:00.774Z,8.12
2024-05-09T03:34:30.857Z,8.11
2024-05-09T03:36:57.841Z,8.08
2024-05-09T03:39:29.047Z,8.05
2024-05-09T03:41:56.298Z,8.06
2024-05-09T03:44:35.090Z,8.03
2024-05-09T03:47:01.960Z,8.01
2024-05-09T03:49:31.885Z,7.97
2024-05-09T03:51:58.806Z,7.91
2024-05-09T03:54:28.001Z,7.87
2024-05-09T03:56:59.516Z,7.86
2024-05-09T03:59:28.825Z,7.83
2024-05-09T04:01:59.142Z,7.80
2024-05-09T04:04:32.483Z,7.77
2024-05-09T04:06:59.839Z,7.77
2024-05-09T04:09:26.613Z,7.72
2024-05-09T04:11:57.694Z,7.70
2024-05-09T04:14:30.212Z,7.69
2024-05-09T04:16:57.056Z,7.65
2024-05-09T04:19:24.036Z,7.62
2024-05-09T04:22:41.378Z,7.65
2024-05-09T04:25:11.306Z,7.69
2024-05-09T04:28:33.073Z,7.73
2024-05-09T04:30:37.600Z,7.72
2024-05-09T04:33:12.139Z,7.75
2024-05-09T04:36:07.093Z,7.79
2024-05-09T04:38:52.241Z,7.79
2024-05-09T04:41:27.305Z,7.80
2024-05-09T04:43:58.292Z,7.82
2024-05-09T04:46:28.521Z,7.86
2024-05-09T04:49:07.680Z,7.90
2024-05-09T04:51:36.572Z,7.95
2024-05-09T04:54:05.545Z,7.98
2024-05-09T04:56:35.362Z,8.03
2024-05-09T04:59:02.150Z,8.08
2024-05-09T05:01:28.846Z,8.15
2024-05-09T05:03:58.743Z,8.16
2024-05-09T05:06:30.213Z,8.24
2024-05-09T05:08:59.167Z,8.28
2024-05-09T05:11:25.958Z,8.35
2024-05-09T05:13:56.782Z,8.40
2024-05-09T05:16:23.565Z,8.46
2024-05-09T05:18:52.948Z,8.61
2024-05-09T05:21:21.273Z,8.81
2024-05-09T05:23:48.472Z,9.02
2024-05-09T05:26:20.310Z,9.06
2024-05-09T05:28:59.716Z,9.15
2024-05-09T05:31:26.491Z,9.26
2024-05-09T05:34:00.165Z,9.33
2024-05-09T05:36:31.371Z,9.40
2024-05-09T05:38:58.185Z,9.49
2024-05-09T05:41:25.676Z,9.61
2024-05-09T05:43:52.632Z,9.69
2024-05-09T05:46:28.628Z,10.12
2024-05-09T05:48:56.542Z,10.43
2024-05-09T05:51:30.254Z,10.40
2024-05-09T05:54:00.094Z,10.40
2024-05-09T05:56:27.646Z,10.40
2024-05-09T05:58:54.544Z,10.44
2024-05-09T06:01:21.272Z,10.51
2024-05-09T06:03:49.812Z,10.95
2024-05-09T06:06:20.754Z,11.41
2024-05-09T06:08:47.731Z,11.37
2024-05-09T06:11:14.821Z,11.83
2024-05-09T06:14:01.573Z,12.72
2024-05-09T06:16:31.563Z,13.14
2024-05-09T06:19:53.615Z,13.59
2024-05-09T06:23:15.972Z,13.88
2024-05-09T06:28:58.761Z,14.27
2024-05-09T06:31:29.436Z,14.84
2024-05-09T06:33:57.774Z,15.51
2024-05-09T06:36:24.733Z,16.01
2024-05-09T06:41:46.905Z,16.51
2024-05-09T06:45:16.215Z,16.53
2024-05-09T06:47:50.291Z,17.16
2024-05-09T06:50:28.715Z,17.57
2024-05-09T06:53:41.212Z,18.02
2024-05-09T06:56:08.865Z,18.73
2024-05-09T06:58:58.063Z,19.36
2024-05-09T07:02:17.410Z,19.32
2024-05-09T07:05:13.944Z,19.51
2024-05-09T07:07:57.531Z,19.85
2024-05-09T07:10:34.868Z,19.96
2024-05-09T07:13:28.603Z,20.53
2024-05-09T07:15:58.320Z,20.64
2024-05-09T07:18:29.565Z,20.82
2024-05-09T07:20:59.914Z,21.15
2024-05-09T07:26:27.712Z,21.43
2024-05-09T07:28:54.761Z,21.50
2024-05-09T07:31:23.966Z,21.67
2024-05-09T07:34:03.780Z,21.91
2024-05-09T07:36:35.074Z,21.93
2024-05-09T07:39:03.426Z,22.08
2024-05-09T07:41:55.479Z,22.58
2024-05-09T07:44:42.200Z,22.36
2024-05-09T07:53:36.814Z,22.81
2024-05-09T07:56:01.704Z,22.90
2024-05-09T07:58:37.330Z,22.86
2024-05-09T08:04:01.226Z,23.15
2024-05-09T08:07:35.035Z,23.29
2024-05-09T08:11:18.398Z,23.87
2024-05-09T08:14:04.693Z,23.74
2024-05-09T08:16:51.066Z,23.93
2024-05-09T08:19:32.250Z,23.96
2024-05-09T08:22:32.428Z,24.06
2024-05-09T08:32:32.248Z,24.42
2024-05-09T08:38:32.246Z,24.55
2024-05-09T08:41:54.534Z,24.96
2024-05-09T08:45:46.705Z,24.95
2024-05-09T08:49:11.153Z,25.04
2024-05-09T08:54:58.098Z,24.78
2024-05-09T09:03:36.708Z,24.56
2024-05-09T09:06:23.490Z,24.71
2024-05-09T09:09:17.917Z,24.12
2024-05-09T09:16:05.440Z,23.64
2024-05-09T09:18:34.567Z,24.47
2024-05-09T09:21:06.650Z,25.19
2024-05-09T09:23:33.717Z,25.54
2024-05-09T09:26:06.462Z,25.52
2024-05-09T09:28:38.930Z,25.49
2024-05-09T09:31:31.904Z,25.56
2024-05-09T09:34:49.121Z,25.33
2024-05-09T09:57:17.258Z,23.78
2024-05-09T10:05:36.741Z,24.40
2024-05-09T10:08:28.414Z,24.08
2024-05-09T10:11:07.404Z,23.91
2024-05-09T10:16:58.875Z,24.17
2024-05-09T10:28:00.607Z,25.04
2024-05-09T10:30:36.282Z,25.61
2024-05-09T10:40:40.678Z,25.90
2024-05-09T10:44:01.892Z,25.72
2024-05-09T11:05:43.208Z,25.67
2024-05-09T11:11:30.791Z,24.83
2024-05-09T11:13:58.128Z,24.99
2024-05-09T11:16:32.210Z,25.42
2024-05-09T11:19:02.127Z,25.47
2024-05-09T11:21:35.980Z,25.64
2024-05-09T11:24:04.872Z,25.73
2024-05-09T11:26:40.565Z,26.02
2024-05-09T11:29:07.409Z,26.09
2024-05-09T11:31:57.065Z,25.74
2024-05-09T11:34:26.566Z,25.60
2024-05-09T11:37:04.347Z,25.59
2024-05-09T11:39:31.305Z,25.38
2024-05-09T11:42:04.699Z,25.57
2024-05-09T11:44:34.232Z,25.29
2024-05-09T11:47:01.411Z,24.99
2024-05-09T11:50:07.716Z,24.84
2024-05-09T11:52:35.264Z,24.63
2024-05-09T11:55:02.909Z,24.38
2024-05-09T11:57:33.277Z,24.51
2024-05-09T12:00:00.250Z,24.58
2024-05-09T12:05:59.396Z,24.35
2024-05-09T12:08:35.934Z,24.26
2024-05-09T12:11:08.286Z,24.06
2024-05-09T12:13:35.999Z,23.96
2024-05-09T12:16:05.172Z,24.13
2024-05-09T12:18:36.048Z,24.31
2024-05-09T12:21:08.468Z,24.40
2024-05-09T12:34:58.145Z,23.59
2024-05-09T12:39:00.287Z,23.15
2024-05-09T12:41:36.278Z,23.06
2024-05-09T12:44:21.549Z,22.95
2024-05-09T12:47:14.316Z,22.92
2024-05-09T12:56:25.570Z,23.03
2024-05-09T13:11:41.066Z,22.91
2024-05-09T13:14:08.428Z,22.95
2024-05-09T13:16:35.419Z,22.98
2024-05-09T13:19:02.671Z,23.36
2024-05-09T13:21:29.550Z,23.63
2024-05-09T13:24:03.678Z,23.57
2024-05-09T13:26:36.622Z,23.22
2024-05-09T13:29:05.143Z,23.10
2024-05-09T13:31:32.559Z,22.97
2024-05-09T13:34:03.157Z,22.84
2024-05-09T13:36:30.595Z,22.87
2024-05-09T13:38:59.459Z,22.86
2024-05-09T13:41:32.182Z,22.76
2024-05-09T13:44:01.656Z,22.90
2024-05-09T13:46:28.504Z,22.74
2024-05-09T13:50:05.180Z,22.94
2024-05-09T13:52:35.367Z,22.77
2024-05-09T13:55:07.612Z,22.57
2024-05-09T13:57:34.469Z,22.55
2024-05-09T14:00:01.460Z,22.56
2024-05-09T14:02:38.464Z,22.57
2024-05-09T14:05:06.737Z,22.63
2024-05-09T14:07:36.501Z,22.35
2024-05-09T14:10:04.111Z,22.54
2024-05-09T14:12:35.675Z,22.56
2024-05-09T14:15:02.726Z,22.62
2024-05-09T14:18:31.985Z,22.66
2024-05-09T14:21:02.036Z,22.60
2024-05-09T14:23:30.021Z,22.51
2024-05-09T14:26:58.896Z,22.35
2024-05-09T14:29:30.025Z,22.21
2024-05-09T14:32:00.445Z,22.30
2024-05-09T14:34:36.530Z,22.39
2024-05-09T14:37:04.754Z,22.59
2024-05-09T14:39:37.330Z,22.58
2024-05-09T14:45:02.732Z,22.69
2024-05-09T14:47:29.675Z,22.77
2024-05-09T14:50:00.472Z,22.93
2024-05-09T14:52:33.005Z,22.94
2024-05-09T14:55:01.230Z,23.03
2024-05-09T14:57:31.595Z,22.95
2024-05-09T15:00:02.102Z,23.12
2024-05-09T15:02:33.806Z,23.32
2024-05-09T15:05:00.915Z,23.53
2024-05-09T15:07:27.915Z,23.35
2024-05-09T15:10:57.143Z,23.35
2024-05-09T15:13:24.734Z,23.34
2024-05-09T15:15:51.932Z,23.25
2024-05-09T15:18:21.147Z,23.34
2024-05-09T15:20:50.913Z,23.62
2024-05-09T15:23:17.878Z,23.48
2024-05-09T15:25:45.114Z,23.21
2024-05-09T15:28:20.816Z,23.11
2024-05-09T15:30:50.348Z,22.97
2024-05-09T15:34:22.356Z,22.72
2024-05-09T15:37:40.644Z,22.60
2024-05-09T15:40:15.360Z,22.36
2024-05-09T15:43:01.229Z,22.47
2024-05-09T15:45:31.966Z,22.49
2024-05-09T15:48:03.319Z,22.46
2024-05-09T15:50:38.755Z,22.44
2024-05-09T15:53:31.487Z,22.08
2024-05-09T15:55:59.585Z,21.88
2024-05-09T15:58:29.677Z,21.88
2024-05-09T16:01:00.278Z,21.95
2024-05-09T16:03:33.082Z,21.93
2024-05-09T16:06:05.572Z,21.70
2024-05-09T16:08:34.464Z,21.79
2024-05-09T16:11:23.729Z,21.81
2024-05-09T16:17:39.766Z,21.34
2024-05-09T16:23:06.139Z,21.29
2024-05-09T16:25:34.917Z,21.28
2024-05-09T16:28:05.920Z,21.16
2024-05-09T16:30:36.135Z,21.04
2024-05-09T16:33:04.917Z,21.02
2024-05-09T16:35:35.330Z,20.95
2024-05-09T16:38:03.844Z,20.90
2024-05-09T16:40:37.813Z,20.75
2024-05-09T16:43:12.179Z,20.73
2024-05-09T16:45:41.155Z,20.66
2024-05-09T16:48:11.032Z,20.69
2024-05-09T16:50:40.938Z,20.71
2024-05-09T16:53:10.635Z,20.57
2024-05-09T16:55:38.439Z,20.53
2024-05-09T16:58:07.943Z,20.54
2024-05-09T17:00:40.939Z,20.43
2024-05-09T17:03:15.590Z,20.38
2024-05-09T17:05:43.608Z,20.34
2024-05-09T17:08:10.832Z,20.27
2024-05-09T17:10:37.720Z,20.24
2024-05-09T17:13:06.698Z,20.14
2024-05-09T17:15:34.998Z,20.15
2024-05-09T17:18:02.338Z,20.17
2024-05-09T17:20:34.738Z,20.11
2024-05-09T17:23:05.092Z,20.15
2024-05-09T17:25:34.361Z,20.11
2024-05-09T17:28:08.488Z,20.18
2024-05-09T17:30:38.475Z,20.18
2024-05-09T17:33:12.754Z,20.05
2024-05-09T17:35:40.095Z,19.95
2024-05-09T17:38:07.392Z,19.91
2024-05-09T17:40:36.750Z,20.00
2024-05-09T17:43:09.631Z,19.94
2024-05-09T17:45:42.734Z,19.83
2024-05-09T17:48:12.246Z,19.82
2024-05-09T17:50:39.430Z,19.84
2024-05-09T17:53:06.650Z,19.69
2024-05-09T17:55:33.998Z,19.57
2024-05-09T17:58:03.388Z,19.48
2024-05-09T18:00:39.002Z,19.38
2024-05-09T18:03:10.357Z,19.38
2024-05-09T18:05:37.947Z,19.24
2024-05-09T18:08:16.640Z,19.12
2024-05-09T18:10:47.081Z,19.10
2024-05-09T18:13:15.072Z,19.03
2024-05-09T18:15:44.278Z,18.95
2024-05-09T18:18:12.110Z,18.96
2024-05-09T18:20:44.464Z,18.85
2024-05-09T18:23:16.581Z,18.75
2024-05-09T18:25:45.186Z,18.68
2024-05-09T18:28:14.620Z,18.67
2024-05-09T18:30:41.607Z,18.63
2024-05-09T18:33:24.935Z,18.62
2024-05-09T18:35:53.853Z,18.59
2024-05-09T18:38:25.443Z,18.56
2024-05-09T18:40:55.066Z,18.55
2024-05-09T18:43:28.530Z,18.48
2024-05-09T18:45:58.918Z,18.49
2024-05-09T18:48:28.070Z,18.44
2024-05-09T18:50:54.942Z,18.40
2024-05-09T18:53:22.839Z,18.38
2024-05-09T18:55:49.429Z,18.36
2024-05-09T18:58:17.616Z,18.39
2024-05-09T19:00:47.172Z,18.38
2024-05-09T19:03:16.632Z,18.29
2024-05-09T19:05:45.229Z,18.24
2024-05-09T19:08:14.575Z,18.33
2024-05-09T19:10:41.895Z,18.39
2024-05-09T19:13:12.202Z,18.41
2024-05-09T19:15:44.131Z,18.30
2024-05-09T19:18:18.712Z,18.18
2024-05-09T19:20:45.883Z,18.13
2024-05-09T19:23:12.941Z,18.12
2024-05-09T19:25:40.177Z,18.08
2024-05-09T19:28:07.182Z,18.01
2024-05-09T19:30:39.476Z,18.03
2024-05-09T19:33:11.566Z,18.03
2024-05-09T19:35:39.862Z,17.99
2024-05-09T19:38:09.643Z,17.93
2024-05-09T19:40:37.546Z,17.92
2024-05-09T19:43:06.483Z,17.88
2024-05-09T19:45:36.269Z,17.91
2024-05-09T19:48:04.851Z,17.87
2024-05-09T19:50:45.139Z,17.79
2024-05-09T19:53:15.798Z,17.77
2024-05-09T19:55:43.925Z,17.73
2024-05-09T19:58:19.696Z,17.74
2024-05-09T20:00:46.748Z,17.61
2024-05-09T20:03:16.563Z,17.46
2024-05-09T20:05:48.605Z,17.37
2024-05-09T20:08:16.013Z,17.23
2024-05-09T20:10:43.272Z,17.13
2024-05-09T20:13:10.107Z,17.15
2024-05-09T20:15:38.762Z,17.06
2024-05-09T20:18:06.453Z,17.01
2024-05-09T20:20:40.224Z,17.01
2024-05-09T20:23:11.447Z,17.01
2024-05-09T20:25:39.555Z,16.91
2024-05-09T20:28:07.190Z,16.82
2024-05-09T20:30:35.487Z,16.78
2024-05-09T20:33:04.586Z,16.82
2024-05-09T20:35:33.030Z,16.82
2024-05-09T20:38:04.126Z,16.75
2024-05-09T20:40:37.680Z,16.71
2024-05-09T20:43:10.996Z,16.64
2024-05-09T20:45:39.988Z,16.59
2024-05-09T20:48:08.616Z,16.57
2024-05-09T20:50:40.565Z,16.51
2024-05-09T20:53:15.328Z,16.49
2024-05-09T20:55:43.383Z,16.41
2024-05-09T20:58:10.584Z,16.28
2024-05-09T21:00:41.074Z,16.19
2024-05-09T21:03:14.610Z,16.16
2024-05-09T21:05:42.755Z,16.08
2024-05-09T21:08:09.461Z,16.06
2024-05-09T21:10:36.840Z,16.00
2024-05-09T21:13:06.674Z,15.94
2024-05-09T21:15:34.010Z,15.87
2024-05-09T21:18:04.426Z,15.75
2024-05-09T21:20:35.411Z,15.58
2024-05-09T21:23:07.742Z,15.53
2024-05-09T21:25:37.385Z,15.55
2024-05-09T21:28:04.602Z,15.54
2024-05-09T21:30:41.764Z,15.53
2024-05-09T21:33:14.016Z,15.50
2024-05-09T21:35:43.124Z,15.46
2024-05-09T21:38:15.465Z,15.43
2024-05-09T21:40:44.103Z,15.41
2024-05-09T21:43:11.276Z,15.37
2024-05-09T21:45:38.063Z,15.36
2024-05-09T21:48:06.212Z,15.32
2024-05-09T21:50:39.771Z,15.22
2024-05-09T21:53:08.606Z,15.20
2024-05-09T21:55:35.336Z,15.21
2024-05-09T21:58:02.904Z,15.17
2024-05-09T22:00:36.613Z,15.13
2024-05-09T22:03:06.881Z,15.05
2024-05-09T22:05:35.400Z,15.03
2024-05-09T22:08:02.249Z,15.00
2024-05-09T22:10:33.993Z,15.00
2024-05-09T22:13:03.437Z,14.98
2024-05-09T22:15:30.433Z,14.93
2024-05-09T22:17:57.682Z,14.89
2024-05-09T22:20:33.736Z,14.87
2024-05-09T22:23:06.520Z,14.86
2024-05-09T22:25:33.651Z,14.82
2024-05-09T22:28:01.875Z,14.79
2024-05-09T22:30:35.798Z,14.80
2024-05-09T22:33:11.349Z,14.78
2024-05-09T22:35:40.211Z,14.76
2024-05-09T22:38:07.071Z,14.72
2024-05-09T22:40:43.297Z,14.70
2024-05-09T22:43:24.929Z,14.64
2024-05-09T22:45:54.884Z,14.61
2024-05-09T22:48:22.301Z,14.55
2024-05-09T22:50:49.074Z,14.53
2024-05-09T22:53:17.526Z,14.45
2024-05-09T22:55:44.166Z,14.35
2024-05-09T22:58:15.055Z,14.33
2024-05-09T23:00:41.835Z,14.28
2024-05-09T23:03:10.067Z,14.24
2024-05-09T23:05:36.847Z,14.25
2024-05-09T23:08:04.030Z,14.23
2024-05-09T23:10:36.288Z,14.22
2024-05-09T23:13:06.961Z,14.20
2024-05-09T23:15:34.682Z,14.17
2024-05-09T23:18:04.918Z,14.14
2024-05-09T23:20:38.502Z,14.09
2024-05-09T23:23:11.688Z,14.04
2024-05-09T23:25:41.639Z,13.97
2024-05-09T23:28:08.962Z,13.90
2024-05-09T23:30:39.086Z,13.79
2024-05-09T23:33:09.218Z,13.63
2024-05-09T23:35:36.385Z,13.56
2024-05-09T23:38:03.982Z,13.55
2024-05-09T23:40:38.322Z,13.56
2024-05-09T23:43:11.597Z,13.49
2024-05-09T23:45:40.354Z,13.40
2024-05-09T23:48:08.071Z,13.38
2024-05-09T23:50:37.948Z,13.40
2024-05-09T23:53:10.362Z,13.36
2024-05-09T23:55:38.130Z,13.33
2024-05-09T23:58:05.732Z,13.29
